SBOSBO ARN / ESSA
Speedbird OnlineSpeedbird Online ARN / ESSA

Stockholm-Arlanda Airport
10:35 13°C

Location Stockholm, Sweden
Latitude: 59.651901245117
Longitude: 17.918600082397
Web Airport Website | Wikipedia
Altitude 42 Meter / 137 Feet
Distance 1,431 KM / 889 Miles
from London.
Time Zone UTC +2 hours (Europe/Stockholm)
Codes IATA: ARN
ICAO: ESSA
Currency £1 equals SEK 12.41
Runways
RunwayLength (m)Surface
01L3301Asphalt
01R2500Asphalt
082500Asphalt
19L2500Asphalt
19R3301Asphalt
262500Asphalt
Radio
TypeDescriptionFrequency
APPSTOCKHOLM CON123.75
ATISATIS119
CLDCLNC DEL121.825
GNDGND121.7
PMSVMET OFFICE122.6
TWRTWR118.5
Live ATC
METAR ESSA 060820Z 25020KT 9999 BKN026 13/08 Q1000 BECMG 25015G25KT
TAF TAF ESSA 060530Z 0606/0706 23014KT 9999 SCT014 BKN020 PROB40 0606/0608 DZRA BKN012 BECMG 0606/0608 25015G25KT
Weather As Of 06 Oct 2022 10:35
Description Broken clouds
Wind 37 km/h from West (250°)
Cloud Cover 75%
Precipitation Rain: none, Snow: none
Sunrise 07:04
Sunset 18:08
Lounges Norrsken, 5
Menzies Aurora Lounge , Terminal 2
Rotations During the last 90 days there were
233 flights from LHR
228 flights to LHR


© 2017-2022 Speedbird Online